sensor_id;sensor_type;location;lat;lon;timestamp;P1;durP1;ratioP1;P2;durP2;ratioP2
27313;SDS011;14800;48.174;9.798;2023-07-09T00:01:36;6.22;;;3.50;;
27313;SDS011;14800;48.174;9.798;2023-07-09T00:04:02;4.75;;;3.08;;
27313;SDS011;14800;48.174;9.798;2023-07-09T00:06:28;4.05;;;3.10;;
27313;SDS011;14800;48.174;9.798;2023-07-09T00:08:54;3.55;;;3.25;;
27313;SDS011;14800;48.174;9.798;2023-07-09T00:11:19;5.93;;;3.50;;
27313;SDS011;14800;48.174;9.798;2023-07-09T00:13:45;4.13;;;3.15;;
27313;SDS011;14800;48.174;9.798;2023-07-09T00:16:14;5.70;;;3.67;;
27313;SDS011;14800;48.174;9.798;2023-07-09T00:18:50;3.85;;;3.05;;
27313;SDS011;14800;48.174;9.798;2023-07-09T00:21:16;3.70;;;3.17;;
27313;SDS011;14800;48.174;9.798;2023-07-09T00:23:43;4.13;;;3.05;;
27313;SDS011;14800;48.174;9.798;2023-07-09T00:26:09;4.53;;;3.20;;
27313;SDS011;14800;48.174;9.798;2023-07-09T00:28:38;3.20;;;2.90;;
27313;SDS011;14800;48.174;9.798;2023-07-09T00:31:04;3.72;;;3.33;;
27313;SDS011;14800;48.174;9.798;2023-07-09T00:33:30;5.55;;;3.40;;
27313;SDS011;14800;48.174;9.798;2023-07-09T00:35:56;4.18;;;3.40;;
27313;SDS011;14800;48.174;9.798;2023-07-09T00:38:23;4.50;;;3.60;;
27313;SDS011;14800;48.174;9.798;2023-07-09T00:41:05;4.03;;;3.40;;
27313;SDS011;14800;48.174;9.798;2023-07-09T00:43:42;4.75;;;3.42;;
27313;SDS011;14800;48.174;9.798;2023-07-09T00:48:56;8.00;;;3.85;;
27313;SDS011;14800;48.174;9.798;2023-07-09T00:51:23;4.95;;;3.60;;
27313;SDS011;14800;48.174;9.798;2023-07-09T00:53:51;4.70;;;3.25;;
27313;SDS011;14800;48.174;9.798;2023-07-09T00:56:24;4.15;;;3.38;;
27313;SDS011;14800;48.174;9.798;2023-07-09T00:58:58;6.95;;;3.58;;
27313;SDS011;14800;48.174;9.798;2023-07-09T01:01:30;5.80;;;3.42;;
27313;SDS011;14800;48.174;9.798;2023-07-09T01:03:58;5.15;;;3.67;;
27313;SDS011;14800;48.174;9.798;2023-07-09T01:06:30;4.50;;;3.50;;
27313;SDS011;14800;48.174;9.798;2023-07-09T01:09:06;4.22;;;3.40;;
27313;SDS011;14800;48.174;9.798;2023-07-09T01:11:32;5.18;;;3.53;;
27313;SDS011;14800;48.174;9.798;2023-07-09T01:13:59;4.45;;;3.03;;
27313;SDS011;14800;48.174;9.798;2023-07-09T01:16:28;3.83;;;3.00;;
27313;SDS011;14800;48.174;9.798;2023-07-09T01:18:58;4.57;;;3.60;;
27313;SDS011;14800;48.174;9.798;2023-07-09T01:21:25;3.95;;;3.55;;
27313;SDS011;14800;48.174;9.798;2023-07-09T01:23:52;6.38;;;3.33;;
27313;SDS011;14800;48.174;9.798;2023-07-09T01:26:19;4.82;;;3.20;;
27313;SDS011;14800;48.174;9.798;2023-07-09T01:28:46;4.72;;;3.00;;
27313;SDS011;14800;48.174;9.798;2023-07-09T01:31:12;3.72;;;3.17;;
27313;SDS011;14800;48.174;9.798;2023-07-09T01:33:40;3.80;;;3.03;;
27313;SDS011;14800;48.174;9.798;2023-07-09T01:36:07;3.40;;;3.10;;
27313;SDS011;14800;48.174;9.798;2023-07-09T01:38:34;6.03;;;3.35;;
27313;SDS011;14800;48.174;9.798;2023-07-09T01:41:01;4.82;;;3.30;;
27313;SDS011;14800;48.174;9.798;2023-07-09T01:43:27;4.05;;;3.17;;
27313;SDS011;14800;48.174;9.798;2023-07-09T01:45:54;3.90;;;3.35;;
27313;SDS011;14800;48.174;9.798;2023-07-09T01:48:23;4.38;;;3.20;;
27313;SDS011;14800;48.174;9.798;2023-07-09T01:50:49;3.55;;;3.05;;
27313;SDS011;14800;48.174;9.798;2023-07-09T01:53:16;4.20;;;2.90;;
27313;SDS011;14800;48.174;9.798;2023-07-09T01:55:44;4.95;;;3.00;;
27313;SDS011;14800;48.174;9.798;2023-07-09T01:58:09;5.07;;;3.22;;
27313;SDS011;14800;48.174;9.798;2023-07-09T02:00:36;4.63;;;3.33;;
27313;SDS011;14800;48.174;9.798;2023-07-09T02:03:03;6.95;;;3.55;;
27313;SDS011;14800;48.174;9.798;2023-07-09T02:05:30;4.00;;;3.15;;
27313;SDS011;14800;48.174;9.798;2023-07-09T02:07:57;3.30;;;3.00;;
27313;SDS011;14800;48.174;9.798;2023-07-09T02:10:23;3.50;;;3.20;;
27313;SDS011;14800;48.174;9.798;2023-07-09T02:12:48;3.67;;;2.85;;
27313;SDS011;14800;48.174;9.798;2023-07-09T02:15:15;5.32;;;3.05;;
27313;SDS011;14800;48.174;9.798;2023-07-09T02:17:41;5.80;;;2.95;;
27313;SDS011;14800;48.174;9.798;2023-07-09T02:20:07;7.03;;;2.92;;
27313;SDS011;14800;48.174;9.798;2023-07-09T02:22:35;4.72;;;3.17;;
27313;SDS011;14800;48.174;9.798;2023-07-09T02:25:01;5.15;;;3.35;;
27313;SDS011;14800;48.174;9.798;2023-07-09T02:27:27;7.43;;;3.20;;
27313;SDS011;14800;48.174;9.798;2023-07-09T02:29:53;6.32;;;3.33;;
27313;SDS011;14800;48.174;9.798;2023-07-09T02:32:23;6.82;;;3.58;;
27313;SDS011;14800;48.174;9.798;2023-07-09T02:34:51;3.60;;;2.88;;
27313;SDS011;14800;48.174;9.798;2023-07-09T02:37:18;4.13;;;3.03;;
27313;SDS011;14800;48.174;9.798;2023-07-09T02:39:46;4.10;;;2.70;;
27313;SDS011;14800;48.174;9.798;2023-07-09T02:42:12;3.45;;;3.10;;
27313;SDS011;14800;48.174;9.798;2023-07-09T02:44:40;3.75;;;3.22;;
27313;SDS011;14800;48.174;9.798;2023-07-09T02:47:06;4.25;;;3.40;;
27313;SDS011;14800;48.174;9.798;2023-07-09T02:49:33;3.97;;;3.47;;
27313;SDS011;14800;48.174;9.798;2023-07-09T02:51:58;4.80;;;3.53;;
27313;SDS011;14800;48.174;9.798;2023-07-09T02:54:24;3.38;;;2.95;;
27313;SDS011;14800;48.174;9.798;2023-07-09T02:56:50;4.55;;;3.10;;
27313;SDS011;14800;48.174;9.798;2023-07-09T02:59:16;6.32;;;3.08;;
27313;SDS011;14800;48.174;9.798;2023-07-09T03:01:41;4.10;;;3.22;;
27313;SDS011;14800;48.174;9.798;2023-07-09T03:04:07;4.85;;;3.30;;
27313;SDS011;14800;48.174;9.798;2023-07-09T03:06:34;3.67;;;3.20;;
27313;SDS011;14800;48.174;9.798;2023-07-09T03:09:01;3.72;;;3.30;;
27313;SDS011;14800;48.174;9.798;2023-07-09T03:11:28;4.88;;;3.42;;
27313;SDS011;14800;48.174;9.798;2023-07-09T03:13:56;4.13;;;3.30;;
27313;SDS011;14800;48.174;9.798;2023-07-09T03:16:22;5.45;;;3.28;;
27313;SDS011;14800;48.174;9.798;2023-07-09T03:18:48;3.95;;;3.25;;
27313;SDS011;14800;48.174;9.798;2023-07-09T03:21:13;3.22;;;2.92;;
27313;SDS011;14800;48.174;9.798;2023-07-09T03:23:39;3.58;;;3.20;;
27313;SDS011;14800;48.174;9.798;2023-07-09T03:26:05;3.55;;;3.25;;
27313;SDS011;14800;48.174;9.798;2023-07-09T03:28:31;5.10;;;3.58;;
27313;SDS011;14800;48.174;9.798;2023-07-09T03:30:57;3.88;;;3.47;;
27313;SDS011;14800;48.174;9.798;2023-07-09T03:33:23;7.13;;;3.25;;
27313;SDS011;14800;48.174;9.798;2023-07-09T03:35:50;7.50;;;3.53;;
27313;SDS011;14800;48.174;9.798;2023-07-09T03:38:16;3.80;;;3.30;;
27313;SDS011;14800;48.174;9.798;2023-07-09T03:40:42;4.57;;;3.63;;
27313;SDS011;14800;48.174;9.798;2023-07-09T03:43:08;5.20;;;3.50;;
27313;SDS011;14800;48.174;9.798;2023-07-09T03:45:35;4.30;;;3.35;;
27313;SDS011;14800;48.174;9.798;2023-07-09T03:48:02;4.00;;;3.20;;
27313;SDS011;14800;48.174;9.798;2023-07-09T03:50:28;4.28;;;3.05;;
27313;SDS011;14800;48.174;9.798;2023-07-09T03:52:54;5.00;;;3.85;;
27313;SDS011;14800;48.174;9.798;2023-07-09T03:55:19;4.05;;;3.17;;
27313;SDS011;14800;48.174;9.798;2023-07-09T03:57:46;4.60;;;3.70;;
27313;SDS011;14800;48.174;9.798;2023-07-09T04:00:12;3.97;;;3.58;;
27313;SDS011;14800;48.174;9.798;2023-07-09T04:02:39;6.40;;;4.00;;
27313;SDS011;14800;48.174;9.798;2023-07-09T04:05:05;6.30;;;3.88;;
27313;SDS011;14800;48.174;9.798;2023-07-09T04:07:33;7.07;;;3.88;;
27313;SDS011;14800;48.174;9.798;2023-07-09T04:09:59;5.22;;;4.18;;
27313;SDS011;14800;48.174;9.798;2023-07-09T04:12:24;5.10;;;3.92;;
27313;SDS011;14800;48.174;9.798;2023-07-09T04:14:50;5.65;;;3.83;;
27313;SDS011;14800;48.174;9.798;2023-07-09T04:17:16;5.15;;;3.80;;
27313;SDS011;14800;48.174;9.798;2023-07-09T04:19:41;7.03;;;3.97;;
27313;SDS011;14800;48.174;9.798;2023-07-09T04:22:07;6.38;;;4.10;;
27313;SDS011;14800;48.174;9.798;2023-07-09T04:24:35;4.55;;;3.80;;
27313;SDS011;14800;48.174;9.798;2023-07-09T04:27:00;5.35;;;3.92;;
27313;SDS011;14800;48.174;9.798;2023-07-09T04:29:27;5.75;;;3.78;;
27313;SDS011;14800;48.174;9.798;2023-07-09T04:31:59;5.28;;;3.60;;
27313;SDS011;14800;48.174;9.798;2023-07-09T04:34:24;4.47;;;3.53;;
27313;SDS011;14800;48.174;9.798;2023-07-09T04:36:50;5.40;;;3.53;;
27313;SDS011;14800;48.174;9.798;2023-07-09T04:39:16;5.72;;;4.13;;
27313;SDS011;14800;48.174;9.798;2023-07-09T04:41:41;4.93;;;3.92;;
27313;SDS011;14800;48.174;9.798;2023-07-09T04:44:07;5.78;;;4.03;;
27313;SDS011;14800;48.174;9.798;2023-07-09T04:46:32;5.47;;;4.13;;
27313;SDS011;14800;48.174;9.798;2023-07-09T04:48:58;5.50;;;4.13;;
27313;SDS011;14800;48.174;9.798;2023-07-09T04:51:25;4.93;;;3.63;;
27313;SDS011;14800;48.174;9.798;2023-07-09T04:53:51;6.05;;;4.15;;
27313;SDS011;14800;48.174;9.798;2023-07-09T04:56:16;4.70;;;3.78;;
27313;SDS011;14800;48.174;9.798;2023-07-09T04:58:43;5.63;;;3.78;;
27313;SDS011;14800;48.174;9.798;2023-07-09T05:01:08;5.95;;;3.90;;
27313;SDS011;14800;48.174;9.798;2023-07-09T05:03:34;6.25;;;3.85;;
27313;SDS011;14800;48.174;9.798;2023-07-09T05:05:59;5.47;;;3.90;;
27313;SDS011;14800;48.174;9.798;2023-07-09T05:08:25;5.97;;;3.78;;
27313;SDS011;14800;48.174;9.798;2023-07-09T05:10:51;6.22;;;3.70;;
27313;SDS011;14800;48.174;9.798;2023-07-09T05:13:18;4.72;;;3.80;;
27313;SDS011;14800;48.174;9.798;2023-07-09T05:15:44;5.47;;;3.85;;
27313;SDS011;14800;48.174;9.798;2023-07-09T05:18:14;4.75;;;4.03;;
27313;SDS011;14800;48.174;9.798;2023-07-09T05:20:41;5.95;;;4.22;;
27313;SDS011;14800;48.174;9.798;2023-07-09T05:23:07;5.97;;;3.88;;
27313;SDS011;14800;48.174;9.798;2023-07-09T05:25:34;5.88;;;4.10;;
27313;SDS011;14800;48.174;9.798;2023-07-09T05:27:59;4.38;;;3.53;;
27313;SDS011;14800;48.174;9.798;2023-07-09T05:30:25;5.90;;;3.72;;
27313;SDS011;14800;48.174;9.798;2023-07-09T05:32:51;4.95;;;3.50;;
27313;SDS011;14800;48.174;9.798;2023-07-09T05:35:18;4.30;;;3.50;;
27313;SDS011;14800;48.174;9.798;2023-07-09T05:37:44;9.25;;;4.22;;
27313;SDS011;14800;48.174;9.798;2023-07-09T05:40:10;5.35;;;3.92;;
27313;SDS011;14800;48.174;9.798;2023-07-09T05:42:36;4.22;;;3.80;;
27313;SDS011;14800;48.174;9.798;2023-07-09T05:45:02;4.53;;;3.55;;
27313;SDS011;14800;48.174;9.798;2023-07-09T05:47:28;6.32;;;3.80;;
27313;SDS011;14800;48.174;9.798;2023-07-09T05:49:53;5.18;;;4.20;;
27313;SDS011;14800;48.174;9.798;2023-07-09T05:52:20;5.55;;;3.80;;
27313;SDS011;14800;48.174;9.798;2023-07-09T05:54:51;5.05;;;4.13;;
27313;SDS011;14800;48.174;9.798;2023-07-09T05:57:18;4.80;;;3.60;;
27313;SDS011;14800;48.174;9.798;2023-07-09T05:59:43;5.18;;;3.63;;
27313;SDS011;14800;48.174;9.798;2023-07-09T06:02:16;5.57;;;3.65;;
27313;SDS011;14800;48.174;9.798;2023-07-09T06:04:44;5.15;;;3.88;;
27313;SDS011;14800;48.174;9.798;2023-07-09T06:07:10;4.97;;;3.90;;
27313;SDS011;14800;48.174;9.798;2023-07-09T06:09:37;3.97;;;3.63;;
27313;SDS011;14800;48.174;9.798;2023-07-09T06:12:03;5.80;;;3.67;;
27313;SDS011;14800;48.174;9.798;2023-07-09T06:14:30;5.40;;;3.45;;
27313;SDS011;14800;48.174;9.798;2023-07-09T06:16:56;4.70;;;3.25;;
27313;SDS011;14800;48.174;9.798;2023-07-09T06:19:23;4.45;;;3.63;;
27313;SDS011;14800;48.174;9.798;2023-07-09T06:21:48;5.07;;;3.42;;
27313;SDS011;14800;48.174;9.798;2023-07-09T06:24:14;5.53;;;3.63;;
27313;SDS011;14800;48.174;9.798;2023-07-09T06:26:39;5.35;;;3.38;;
27313;SDS011;14800;48.174;9.798;2023-07-09T06:29:05;4.95;;;3.30;;
27313;SDS011;14800;48.174;9.798;2023-07-09T06:31:31;5.03;;;3.08;;
27313;SDS011;14800;48.174;9.798;2023-07-09T06:33:56;5.65;;;3.53;;
27313;SDS011;14800;48.174;9.798;2023-07-09T06:36:22;4.40;;;3.22;;
27313;SDS011;14800;48.174;9.798;2023-07-09T06:38:48;4.40;;;3.30;;
27313;SDS011;14800;48.174;9.798;2023-07-09T06:41:13;3.92;;;3.47;;
27313;SDS011;14800;48.174;9.798;2023-07-09T06:43:40;4.63;;;3.38;;
27313;SDS011;14800;48.174;9.798;2023-07-09T06:46:06;4.55;;;3.38;;
27313;SDS011;14800;48.174;9.798;2023-07-09T06:48:34;5.72;;;3.17;;
27313;SDS011;14800;48.174;9.798;2023-07-09T06:51:00;3.55;;;2.97;;
27313;SDS011;14800;48.174;9.798;2023-07-09T06:53:26;3.53;;;3.20;;
27313;SDS011;14800;48.174;9.798;2023-07-09T06:55:53;4.45;;;3.38;;
27313;SDS011;14800;48.174;9.798;2023-07-09T06:58:20;3.95;;;3.50;;
27313;SDS011;14800;48.174;9.798;2023-07-09T07:00:48;4.63;;;3.20;;
27313;SDS011;14800;48.174;9.798;2023-07-09T07:03:14;4.10;;;3.17;;
27313;SDS011;14800;48.174;9.798;2023-07-09T07:05:44;5.65;;;3.20;;
27313;SDS011;14800;48.174;9.798;2023-07-09T07:08:10;5.32;;;3.70;;
27313;SDS011;14800;48.174;9.798;2023-07-09T07:10:36;3.60;;;3.30;;
27313;SDS011;14800;48.174;9.798;2023-07-09T07:13:01;5.88;;;3.65;;
27313;SDS011;14800;48.174;9.798;2023-07-09T07:15:27;3.85;;;3.25;;
27313;SDS011;14800;48.174;9.798;2023-07-09T07:17:53;4.15;;;3.28;;
27313;SDS011;14800;48.174;9.798;2023-07-09T07:20:18;4.15;;;3.10;;
27313;SDS011;14800;48.174;9.798;2023-07-09T07:22:44;4.05;;;2.90;;
27313;SDS011;14800;48.174;9.798;2023-07-09T07:25:10;6.40;;;3.35;;
27313;SDS011;14800;48.174;9.798;2023-07-09T07:27:36;3.60;;;3.30;;
27313;SDS011;14800;48.174;9.798;2023-07-09T07:30:02;5.50;;;2.95;;
27313;SDS011;14800;48.174;9.798;2023-07-09T07:32:28;3.92;;;3.05;;
27313;SDS011;14800;48.174;9.798;2023-07-09T07:34:54;5.32;;;2.90;;
27313;SDS011;14800;48.174;9.798;2023-07-09T07:37:20;6.18;;;2.80;;
27313;SDS011;14800;48.174;9.798;2023-07-09T07:39:48;3.83;;;3.00;;
27313;SDS011;14800;48.174;9.798;2023-07-09T07:42:14;3.42;;;2.70;;
27313;SDS011;14800;48.174;9.798;2023-07-09T07:44:40;5.63;;;3.22;;
27313;SDS011;14800;48.174;9.798;2023-07-09T07:47:05;4.15;;;2.85;;
27313;SDS011;14800;48.174;9.798;2023-07-09T07:49:31;3.30;;;2.92;;
27313;SDS011;14800;48.174;9.798;2023-07-09T07:51:57;5.65;;;3.03;;
27313;SDS011;14800;48.174;9.798;2023-07-09T07:54:23;3.13;;;2.83;;
27313;SDS011;14800;48.174;9.798;2023-07-09T07:56:49;5.70;;;3.08;;
27313;SDS011;14800;48.174;9.798;2023-07-09T07:59:16;3.50;;;2.90;;
27313;SDS011;14800;48.174;9.798;2023-07-09T08:01:42;5.82;;;3.03;;
27313;SDS011;14800;48.174;9.798;2023-07-09T08:04:08;5.15;;;2.90;;
27313;SDS011;14800;48.174;9.798;2023-07-09T08:06:34;4.07;;;2.67;;
27313;SDS011;14800;48.174;9.798;2023-07-09T08:09:00;4.13;;;2.90;;
27313;SDS011;14800;48.174;9.798;2023-07-09T08:11:26;3.65;;;2.63;;
27313;SDS011;14800;48.174;9.798;2023-07-09T08:13:53;3.65;;;2.80;;
27313;SDS011;14800;48.174;9.798;2023-07-09T08:16:19;3.28;;;2.80;;
27313;SDS011;14800;48.174;9.798;2023-07-09T08:18:44;5.50;;;2.80;;
27313;SDS011;14800;48.174;9.798;2023-07-09T08:21:10;3.67;;;3.20;;
27313;SDS011;14800;48.174;9.798;2023-07-09T08:23:35;4.10;;;3.00;;
27313;SDS011;14800;48.174;9.798;2023-07-09T08:26:02;3.40;;;2.67;;
27313;SDS011;14800;48.174;9.798;2023-07-09T08:28:29;4.95;;;2.75;;
27313;SDS011;14800;48.174;9.798;2023-07-09T08:30:55;2.97;;;2.35;;
27313;SDS011;14800;48.174;9.798;2023-07-09T08:33:21;2.78;;;2.42;;
27313;SDS011;14800;48.174;9.798;2023-07-09T08:35:48;3.25;;;2.78;;
27313;SDS011;14800;48.174;9.798;2023-07-09T08:38:15;2.80;;;2.60;;
27313;SDS011;14800;48.174;9.798;2023-07-09T08:40:41;2.92;;;2.65;;
27313;SDS011;14800;48.174;9.798;2023-07-09T08:43:17;4.65;;;2.45;;
27313;SDS011;14800;48.174;9.798;2023-07-09T08:46:27;3.55;;;2.30;;
27313;SDS011;14800;48.174;9.798;2023-07-09T08:48:54;3.53;;;2.25;;
27313;SDS011;14800;48.174;9.798;2023-07-09T08:51:25;4.45;;;2.33;;
27313;SDS011;14800;48.174;9.798;2023-07-09T08:53:58;3.30;;;2.67;;
27313;SDS011;14800;48.174;9.798;2023-07-09T08:56:29;4.28;;;2.72;;
27313;SDS011;14800;48.174;9.798;2023-07-09T08:58:58;6.95;;;2.50;;
27313;SDS011;14800;48.174;9.798;2023-07-09T09:01:27;4.43;;;2.78;;
27313;SDS011;14800;48.174;9.798;2023-07-09T09:04:24;2.92;;;2.45;;
27313;SDS011;14800;48.174;9.798;2023-07-09T09:07:00;3.38;;;2.28;;
27313;SDS011;14800;48.174;9.798;2023-07-09T09:09:32;4.65;;;2.50;;
27313;SDS011;14800;48.174;9.798;2023-07-09T09:14:58;3.58;;;2.20;;
27313;SDS011;14800;48.174;9.798;2023-07-09T09:17:29;2.80;;;2.45;;
27313;SDS011;14800;48.174;9.798;2023-07-09T09:19:59;4.45;;;2.55;;
27313;SDS011;14800;48.174;9.798;2023-07-09T09:22:30;3.20;;;2.40;;
27313;SDS011;14800;48.174;9.798;2023-07-09T09:27:55;5.00;;;2.30;;
27313;SDS011;14800;48.174;9.798;2023-07-09T09:30:22;3.58;;;2.70;;
27313;SDS011;14800;48.174;9.798;2023-07-09T09:35:28;2.55;;;2.35;;
27313;SDS011;14800;48.174;9.798;2023-07-09T09:37:57;3.08;;;2.20;;
27313;SDS011;14800;48.174;9.798;2023-07-09T09:40:24;3.50;;;2.10;;
27313;SDS011;14800;48.174;9.798;2023-07-09T09:42:56;5.43;;;2.38;;
27313;SDS011;14800;48.174;9.798;2023-07-09T09:45:28;2.63;;;2.20;;
27313;SDS011;14800;48.174;9.798;2023-07-09T09:47:59;2.30;;;2.10;;
27313;SDS011;14800;48.174;9.798;2023-07-09T09:50:27;4.68;;;2.30;;
27313;SDS011;14800;48.174;9.798;2023-07-09T09:52:56;3.58;;;2.25;;
27313;SDS011;14800;48.174;9.798;2023-07-09T09:55:24;2.33;;;2.13;;
27313;SDS011;14800;48.174;9.798;2023-07-09T09:57:53;5.00;;;2.58;;
27313;SDS011;14800;48.174;9.798;2023-07-09T10:00:22;2.88;;;2.10;;
27313;SDS011;14800;48.174;9.798;2023-07-09T10:02:50;3.30;;;2.10;;
27313;SDS011;14800;48.174;9.798;2023-07-09T10:05:21;3.85;;;2.13;;
27313;SDS011;14800;48.174;9.798;2023-07-09T10:13:51;2.22;;;1.80;;
27313;SDS011;14800;48.174;9.798;2023-07-09T10:16:34;3.72;;;2.05;;
27313;SDS011;14800;48.174;9.798;2023-07-09T10:27:12;2.65;;;2.00;;
27313;SDS011;14800;48.174;9.798;2023-07-09T10:35:04;2.70;;;1.73;;
27313;SDS011;14800;48.174;9.798;2023-07-09T10:40:46;3.25;;;2.08;;
27313;SDS011;14800;48.174;9.798;2023-07-09T10:43:19;2.22;;;1.90;;
27313;SDS011;14800;48.174;9.798;2023-07-09T10:45:59;2.38;;;1.90;;
27313;SDS011;14800;48.174;9.798;2023-07-09T10:48:51;3.78;;;2.25;;
27313;SDS011;14800;48.174;9.798;2023-07-09T10:51:27;3.63;;;2.25;;
27313;SDS011;14800;48.174;9.798;2023-07-09T10:56:26;3.47;;;2.10;;
27313;SDS011;14800;48.174;9.798;2023-07-09T11:01:48;2.60;;;2.10;;
27313;SDS011;14800;48.174;9.798;2023-07-09T11:04:40;3.10;;;2.03;;
27313;SDS011;14800;48.174;9.798;2023-07-09T11:07:12;2.65;;;2.00;;
27313;SDS011;14800;48.174;9.798;2023-07-09T11:09:42;2.47;;;2.17;;
27313;SDS011;14800;48.174;9.798;2023-07-09T11:12:15;4.85;;;2.38;;
27313;SDS011;14800;48.174;9.798;2023-07-09T11:15:04;3.10;;;2.17;;
27313;SDS011;14800;48.174;9.798;2023-07-09T11:17:34;2.40;;;2.20;;
27313;SDS011;14800;48.174;9.798;2023-07-09T11:20:07;3.42;;;2.05;;
27313;SDS011;14800;48.174;9.798;2023-07-09T11:22:41;3.97;;;2.30;;
27313;SDS011;14800;48.174;9.798;2023-07-09T11:25:26;3.15;;;2.28;;
27313;SDS011;14800;48.174;9.798;2023-07-09T11:27:54;4.45;;;2.38;;
27313;SDS011;14800;48.174;9.798;2023-07-09T11:30:30;4.28;;;2.42;;
27313;SDS011;14800;48.174;9.798;2023-07-09T11:32:57;4.63;;;2.13;;
27313;SDS011;14800;48.174;9.798;2023-07-09T11:35:25;3.42;;;2.10;;
27313;SDS011;14800;48.174;9.798;2023-07-09T11:37:52;3.33;;;2.08;;
27313;SDS011;14800;48.174;9.798;2023-07-09T11:40:19;2.72;;;2.20;;
27313;SDS011;14800;48.174;9.798;2023-07-09T11:42:50;3.60;;;2.60;;
27313;SDS011;14800;48.174;9.798;2023-07-09T11:45:17;5.20;;;2.50;;
27313;SDS011;14800;48.174;9.798;2023-07-09T11:47:51;3.03;;;2.55;;
27313;SDS011;14800;48.174;9.798;2023-07-09T11:50:44;3.65;;;2.40;;
27313;SDS011;14800;48.174;9.798;2023-07-09T11:56:02;3.83;;;2.70;;
27313;SDS011;14800;48.174;9.798;2023-07-09T11:58:28;4.07;;;2.50;;
27313;SDS011;14800;48.174;9.798;2023-07-09T12:00:54;3.33;;;2.40;;
27313;SDS011;14800;48.174;9.798;2023-07-09T12:03:29;7.28;;;2.33;;
27313;SDS011;14800;48.174;9.798;2023-07-09T12:06:05;3.15;;;2.42;;
27313;SDS011;14800;48.174;9.798;2023-07-09T12:08:42;2.95;;;2.25;;
27313;SDS011;14800;48.174;9.798;2023-07-09T12:11:17;4.72;;;2.33;;
27313;SDS011;14800;48.174;9.798;2023-07-09T12:13:44;4.95;;;2.10;;
27313;SDS011;14800;48.174;9.798;2023-07-09T12:18:51;2.70;;;1.98;;
27313;SDS011;14800;48.174;9.798;2023-07-09T12:21:18;2.22;;;2.08;;
27313;SDS011;14800;48.174;9.798;2023-07-09T12:23:44;2.55;;;2.03;;
27313;SDS011;14800;48.174;9.798;2023-07-09T12:26:11;4.35;;;2.88;;
27313;SDS011;14800;48.174;9.798;2023-07-09T12:28:39;2.50;;;2.30;;
27313;SDS011;14800;48.174;9.798;2023-07-09T12:31:10;4.03;;;2.40;;
27313;SDS011;14800;48.174;9.798;2023-07-09T12:33:47;5.85;;;2.47;;
27313;SDS011;14800;48.174;9.798;2023-07-09T12:36:14;3.20;;;2.17;;
27313;SDS011;14800;48.174;9.798;2023-07-09T12:38:43;3.00;;;2.20;;
27313;SDS011;14800;48.174;9.798;2023-07-09T12:41:18;3.30;;;2.20;;
27313;SDS011;14800;48.174;9.798;2023-07-09T12:43:47;2.65;;;2.20;;
27313;SDS011;14800;48.174;9.798;2023-07-09T12:46:14;3.58;;;2.20;;
27313;SDS011;14800;48.174;9.798;2023-07-09T12:48:40;3.05;;;2.17;;
27313;SDS011;14800;48.174;9.798;2023-07-09T12:51:07;3.50;;;2.40;;
27313;SDS011;14800;48.174;9.798;2023-07-09T12:53:33;4.15;;;2.63;;
27313;SDS011;14800;48.174;9.798;2023-07-09T12:56:01;4.25;;;2.40;;
27313;SDS011;14800;48.174;9.798;2023-07-09T12:58:28;3.20;;;2.60;;
27313;SDS011;14800;48.174;9.798;2023-07-09T13:00:56;2.95;;;2.58;;
27313;SDS011;14800;48.174;9.798;2023-07-09T13:03:27;6.22;;;2.60;;
27313;SDS011;14800;48.174;9.798;2023-07-09T13:06:00;3.42;;;2.30;;
27313;SDS011;14800;48.174;9.798;2023-07-09T13:08:31;3.28;;;2.35;;
27313;SDS011;14800;48.174;9.798;2023-07-09T13:11:13;6.28;;;2.10;;
27313;SDS011;14800;48.174;9.798;2023-07-09T13:14:01;2.95;;;2.17;;
27313;SDS011;14800;48.174;9.798;2023-07-09T13:16:29;2.88;;;2.10;;
27313;SDS011;14800;48.174;9.798;2023-07-09T13:18:55;3.50;;;2.40;;
27313;SDS011;14800;48.174;9.798;2023-07-09T13:21:21;3.60;;;2.38;;
27313;SDS011;14800;48.174;9.798;2023-07-09T13:23:48;4.32;;;2.53;;
27313;SDS011;14800;48.174;9.798;2023-07-09T13:26:14;2.65;;;2.35;;
27313;SDS011;14800;48.174;9.798;2023-07-09T13:28:42;3.67;;;2.33;;
27313;SDS011;14800;48.174;9.798;2023-07-09T13:31:15;3.17;;;2.22;;
27313;SDS011;14800;48.174;9.798;2023-07-09T13:33:43;3.28;;;2.42;;
27313;SDS011;14800;48.174;9.798;2023-07-09T13:36:09;3.42;;;2.67;;
27313;SDS011;14800;48.174;9.798;2023-07-09T13:38:38;3.63;;;2.58;;
27313;SDS011;14800;48.174;9.798;2023-07-09T13:41:11;4.75;;;2.53;;
27313;SDS011;14800;48.174;9.798;2023-07-09T13:43:41;4.47;;;2.70;;
27313;SDS011;14800;48.174;9.798;2023-07-09T13:46:09;4.32;;;2.42;;
27313;SDS011;14800;48.174;9.798;2023-07-09T13:48:35;4.03;;;2.45;;
27313;SDS011;14800;48.174;9.798;2023-07-09T13:51:10;4.53;;;2.85;;
27313;SDS011;14800;48.174;9.798;2023-07-09T13:53:40;3.63;;;2.33;;
27313;SDS011;14800;48.174;9.798;2023-07-09T13:56:06;3.25;;;2.40;;
27313;SDS011;14800;48.174;9.798;2023-07-09T13:58:31;3.00;;;2.40;;
27313;SDS011;14800;48.174;9.798;2023-07-09T14:00:58;8.05;;;2.88;;
27313;SDS011;14800;48.174;9.798;2023-07-09T14:03:30;3.05;;;2.58;;
27313;SDS011;14800;48.174;9.798;2023-07-09T14:05:57;4.32;;;2.33;;
27313;SDS011;14800;48.174;9.798;2023-07-09T14:08:22;2.63;;;2.17;;
27313;SDS011;14800;48.174;9.798;2023-07-09T14:10:48;3.53;;;2.42;;
27313;SDS011;14800;48.174;9.798;2023-07-09T14:13:17;4.60;;;2.13;;
27313;SDS011;14800;48.174;9.798;2023-07-09T14:15:46;3.10;;;2.10;;
27313;SDS011;14800;48.174;9.798;2023-07-09T14:18:13;3.33;;;2.22;;
27313;SDS011;14800;48.174;9.798;2023-07-09T14:20:41;3.63;;;2.53;;
27313;SDS011;14800;48.174;9.798;2023-07-09T14:23:15;5.13;;;2.50;;
27313;SDS011;14800;48.174;9.798;2023-07-09T14:28:18;6.93;;;2.33;;
27313;SDS011;14800;48.174;9.798;2023-07-09T14:30:45;5.07;;;2.25;;
27313;SDS011;14800;48.174;9.798;2023-07-09T14:33:14;2.67;;;2.42;;
27313;SDS011;14800;48.174;9.798;2023-07-09T14:35:41;2.58;;;2.15;;
27313;SDS011;14800;48.174;9.798;2023-07-09T14:38:14;4.88;;;2.60;;
27313;SDS011;14800;48.174;9.798;2023-07-09T14:40:41;3.70;;;2.50;;
27313;SDS011;14800;48.174;9.798;2023-07-09T14:43:08;3.75;;;2.30;;
27313;SDS011;14800;48.174;9.798;2023-07-09T14:45:36;5.88;;;2.33;;
27313;SDS011;14800;48.174;9.798;2023-07-09T14:48:05;2.90;;;2.10;;
27313;SDS011;14800;48.174;9.798;2023-07-09T14:50:37;4.50;;;2.50;;
27313;SDS011;14800;48.174;9.798;2023-07-09T14:53:05;4.45;;;2.10;;
27313;SDS011;14800;48.174;9.798;2023-07-09T14:55:37;4.13;;;2.40;;
27313;SDS011;14800;48.174;9.798;2023-07-09T14:58:04;2.97;;;2.40;;
27313;SDS011;14800;48.174;9.798;2023-07-09T15:00:43;2.45;;;2.20;;
27313;SDS011;14800;48.174;9.798;2023-07-09T15:03:11;6.15;;;2.30;;
27313;SDS011;14800;48.174;9.798;2023-07-09T15:05:49;3.20;;;2.15;;
27313;SDS011;14800;48.174;9.798;2023-07-09T15:08:16;5.95;;;2.10;;
27313;SDS011;14800;48.174;9.798;2023-07-09T15:10:47;6.35;;;2.22;;
27313;SDS011;14800;48.174;9.798;2023-07-09T15:15:51;2.42;;;2.17;;
27313;SDS011;14800;48.174;9.798;2023-07-09T15:18:17;3.45;;;2.10;;
27313;SDS011;14800;48.174;9.798;2023-07-09T15:20:46;3.25;;;2.50;;
27313;SDS011;14800;48.174;9.798;2023-07-09T15:23:14;4.63;;;2.10;;
27313;SDS011;14800;48.174;9.798;2023-07-09T15:25:39;2.90;;;1.88;;
27313;SDS011;14800;48.174;9.798;2023-07-09T15:28:05;3.05;;;2.30;;
27313;SDS011;14800;48.174;9.798;2023-07-09T15:30:31;3.92;;;2.28;;
27313;SDS011;14800;48.174;9.798;2023-07-09T15:32:57;3.22;;;2.13;;
27313;SDS011;14800;48.174;9.798;2023-07-09T15:35:25;4.05;;;2.28;;
27313;SDS011;14800;48.174;9.798;2023-07-09T15:37:55;2.80;;;2.33;;
27313;SDS011;14800;48.174;9.798;2023-07-09T15:40:23;4.93;;;2.13;;
27313;SDS011;14800;48.174;9.798;2023-07-09T15:42:53;3.30;;;2.40;;
27313;SDS011;14800;48.174;9.798;2023-07-09T15:45:22;2.90;;;2.45;;